Time;durP1;ratioP1;P1;durP2;ratioP2;P2;SDS_P1;SDS_P2;PMS_P1;PMS_P2;Temp;Humidity;BMP_temperature;BMP_pressure;BME280_temperature;BME280_humidity;BME280_pressure;Samples;Min_cycle;Max_cycle;Signal;HPM_P1;HPM_P2
2021/09/24 00:02:07;;;;;;;8.75;7.03;;;9.70;99.90;;;;;;4998115;28;20441;-44
2021/09/24 00:04:35;;;;;;;9.50;7.50;;;9.80;99.90;;;;;;4998193;28;20041;-47
2021/09/24 00:07:01;;;;;;;10.85;7.72;;;9.70;99.90;;;;;;5015607;28;20113;-47
2021/09/24 00:09:27;;;;;;;9.80;8.57;;;9.90;99.90;;;;;;5015773;28;20037;-45
2021/09/24 00:11:53;;;;;;;9.43;8.00;;;9.90;99.90;;;;;;5015523;28;20146;-47
2021/09/24 00:14:18;;;;;;;9.65;8.40;;;10.00;99.90;;;;;;5015662;28;20026;-43
2021/09/24 00:16:44;;;;;;;10.18;7.60;;;10.10;99.90;;;;;;5015511;28;20116;-47
2021/09/24 00:19:10;;;;;;;10.10;8.20;;;10.10;99.90;;;;;;5013806;28;20088;-46
2021/09/24 00:21:36;;;;;;;10.25;8.10;;;10.10;99.90;;;;;;4948706;28;20193;-47
2021/09/24 00:24:05;;;;;;;9.60;8.60;;;10.20;99.90;;;;;;4993793;28;20030;-44
2021/09/24 00:26:31;;;;;;;8.52;7.63;;;10.10;99.90;;;;;;4961434;28;20428;-44
2021/09/24 00:28:59;;;;;;;8.88;7.68;;;10.10;99.90;;;;;;4994202;28;20451;-43
2021/09/24 00:31:26;;;;;;;8.35;7.18;;;10.00;99.90;;;;;;4993472;28;20040;-44
2021/09/24 00:33:52;;;;;;;10.30;7.97;;;9.90;99.90;;;;;;4993495;28;20042;-45
2021/09/24 00:36:18;;;;;;;9.40;7.45;;;9.90;99.90;;;;;;4993583;28;20042;-46
2021/09/24 00:38:44;;;;;;;9.93;7.57;;;10.00;99.90;;;;;;4993450;28;20038;-44
2021/09/24 00:41:10;;;;;;;8.73;7.82;;;10.00;99.90;;;;;;4993039;28;20050;-47
2021/09/24 00:43:36;;;;;;;10.20;8.18;;;10.10;99.90;;;;;;4993114;28;20034;-48
2021/09/24 00:46:03;;;;;;;11.02;8.23;;;10.10;99.90;;;;;;4993224;28;20153;-46
2021/09/24 00:48:30;;;;;;;13.07;9.38;;;10.10;99.90;;;;;;4993023;28;20113;-44
2021/09/24 00:50:56;;;;;;;10.10;8.35;;;10.10;99.90;;;;;;4992863;28;20058;-47
2021/09/24 00:53:23;;;;;;;10.70;8.43;;;10.20;99.90;;;;;;4976933;28;20482;-46
2021/09/24 00:55:49;;;;;;;10.43;8.35;;;10.50;99.90;;;;;;4990002;28;20034;-46
2021/09/24 00:58:15;;;;;;;11.82;8.10;;;10.60;99.90;;;;;;5014813;28;20437;-44
2021/09/24 01:00:43;;;;;;;9.43;8.07;;;10.80;99.90;;;;;;4996610;28;20053;-47
2021/09/24 01:03:09;;;;;;;8.68;7.43;;;11.00;99.90;;;;;;5013261;28;20436;-48
2021/09/24 01:05:35;;;;;;;10.02;7.90;;;10.90;99.90;;;;;;5014574;28;20116;-47
2021/09/24 01:08:01;;;;;;;9.65;8.38;;;10.90;99.90;;;;;;5014568;28;20088;-45
2021/09/24 01:10:27;;;;;;;9.05;7.50;;;10.90;99.90;;;;;;5014882;28;20026;-43
2021/09/24 01:12:53;;;;;;;9.75;8.60;;;11.00;99.90;;;;;;5014444;28;20496;-47
2021/09/24 01:15:27;;;;;;;10.18;8.95;;;11.10;99.90;;;;;;5014629;28;20038;-41
2021/09/24 01:17:52;;;;;;;10.55;7.78;;;11.00;99.90;;;;;;5014494;28;20033;-45
2021/09/24 01:20:20;;;;;;;11.25;8.63;;;10.60;99.90;;;;;;5014571;28;20027;-46
2021/09/24 01:22:50;;;;;;;9.85;8.48;;;10.40;99.90;;;;;;5012921;28;20038;-49
2021/09/24 01:25:18;;;;;;;9.60;8.55;;;10.60;99.90;;;;;;5014564;28;20030;-45
2021/09/24 01:27:44;;;;;;;10.80;8.90;;;10.80;99.90;;;;;;5010467;28;20046;-45
2021/09/24 01:30:10;;;;;;;12.07;8.63;;;10.90;99.90;;;;;;4995826;28;20558;-45
2021/09/24 01:32:36;;;;;;;11.05;8.43;;;10.90;99.90;;;;;;4992421;28;20035;-47
2021/09/24 01:35:07;;;;;;;11.55;8.73;;;11.00;99.90;;;;;;4992256;28;20077;-45
2021/09/24 01:37:34;;;;;;;11.55;9.10;;;11.00;99.90;;;;;;4944084;28;20048;-47
2021/09/24 01:40:00;;;;;;;11.95;9.30;;;11.00;99.90;;;;;;4992525;28;20101;-47
2021/09/24 01:42:35;;;;;;;20.08;9.88;;;11.10;99.90;;;;;;4992328;28;20042;-48
2021/09/24 01:45:01;;;;;;;12.90;9.50;;;11.00;99.90;;;;;;4992633;28;20049;-48
2021/09/24 01:47:29;;;;;;;13.05;9.68;;;11.10;99.90;;;;;;4992151;28;20129;-47
2021/09/24 01:49:55;;;;;;;10.70;9.15;;;11.10;99.90;;;;;;4992274;28;20046;-48
2021/09/24 01:52:24;;;;;;;13.38;9.75;;;11.10;99.90;;;;;;4992569;28;20380;-46
2021/09/24 01:54:50;;;;;;;10.20;9.05;;;11.10;99.90;;;;;;4992680;28;20030;-48
2021/09/24 01:57:16;;;;;;;13.10;10.07;;;11.10;99.90;;;;;;4992332;28;20026;-44
2021/09/24 01:59:41;;;;;;;11.75;9.25;;;11.20;99.90;;;;;;4991046;28;20026;-43
2021/09/24 02:02:07;;;;;;;13.18;10.70;;;11.20;99.90;;;;;;4990329;28;20073;-44
2021/09/24 02:04:50;;;;;;;11.60;9.68;;;11.20;99.90;;;;;;5011497;28;20041;-47
2021/09/24 02:07:16;;;;;;;12.63;10.00;;;11.20;99.90;;;;;;4995562;28;20045;-46
2021/09/24 02:09:42;;;;;;;13.40;9.40;;;11.20;99.90;;;;;;4963028;28;20056;-48
2021/09/24 02:12:08;;;;;;;10.88;9.10;;;11.20;99.90;;;;;;5013752;28;20025;-47
2021/09/24 02:14:34;;;;;;;10.77;8.95;;;11.20;99.90;;;;;;4963184;28;20092;-44
2021/09/24 02:17:03;;;;;;;12.55;9.20;;;11.20;99.90;;;;;;5013473;28;20026;-46
2021/09/24 02:19:29;;;;;;;11.57;8.63;;;11.20;99.90;;;;;;5013663;28;20033;-45
2021/09/24 02:21:57;;;;;;;10.43;9.25;;;11.20;99.90;;;;;;5013699;28;20026;-46
2021/09/24 02:24:23;;;;;;;15.07;9.75;;;11.20;99.90;;;;;;5012284;28;20092;-46
2021/09/24 02:26:49;;;;;;;10.65;8.68;;;11.10;99.90;;;;;;5013483;28;20044;-47
2021/09/24 02:29:15;;;;;;;12.80;9.23;;;11.20;99.90;;;;;;5013666;28;20470;-45
2021/09/24 02:31:43;;;;;;;10.77;9.15;;;11.20;99.90;;;;;;4963006;28;20042;-48
2021/09/24 02:34:10;;;;;;;11.75;9.90;;;11.20;99.90;;;;;;5013175;28;20096;-46
2021/09/24 02:36:37;;;;;;;10.98;9.13;;;11.10;99.90;;;;;;5013500;28;20460;-49
2021/09/24 02:39:04;;;;;;;12.05;10.18;;;11.00;99.90;;;;;;5013331;28;20453;-44
2021/09/24 02:41:30;;;;;;;11.95;8.85;;;10.90;99.90;;;;;;5013551;28;20022;-44
2021/09/24 02:43:56;;;;;;;11.60;8.70;;;11.00;99.90;;;;;;5011558;28;20034;-44
2021/09/24 02:46:22;;;;;;;14.00;9.43;;;11.00;99.90;;;;;;5013130;28;20442;-42
2021/09/24 02:48:47;;;;;;;12.18;9.68;;;11.10;99.90;;;;;;5013288;28;20034;-47
2021/09/24 02:51:13;;;;;;;14.95;10.77;;;11.10;99.90;;;;;;5013474;28;20022;-45
2021/09/24 02:53:39;;;;;;;14.63;9.90;;;11.10;99.90;;;;;;5013163;28;20030;-44
2021/09/24 02:56:08;;;;;;;14.43;9.55;;;11.10;99.90;;;;;;4991837;28;20053;-47
2021/09/24 02:58:33;;;;;;;12.02;8.70;;;11.10;99.90;;;;;;4942767;28;20499;-49
2021/09/24 03:01:00;;;;;;;12.50;8.82;;;11.10;99.90;;;;;;4991491;28;20081;-47
2021/09/24 03:03:26;;;;;;;11.55;9.20;;;11.00;99.90;;;;;;4991437;28;20121;-46
2021/09/24 03:05:52;;;;;;;14.98;10.02;;;11.10;99.90;;;;;;4943126;28;20118;-44
2021/09/24 03:08:17;;;;;;;15.27;10.07;;;11.10;99.90;;;;;;4991523;28;20572;-45
2021/09/24 03:10:44;;;;;;;14.30;9.77;;;11.10;99.90;;;;;;4961172;28;20045;-47
2021/09/24 03:13:09;;;;;;;12.90;10.30;;;11.10;99.90;;;;;;4995105;28;20034;-46
2021/09/24 03:15:36;;;;;;;17.45;9.43;;;11.10;99.90;;;;;;4990759;28;20097;-41
2021/09/24 03:18:02;;;;;;;12.98;9.30;;;11.10;99.90;;;;;;4976771;28;20442;-42
2021/09/24 03:20:30;;;;;;;12.25;9.27;;;11.10;99.90;;;;;;4994985;28;20038;-42
2021/09/24 03:22:56;;;;;;;12.77;9.57;;;11.10;99.90;;;;;;4975320;28;20122;-43
2021/09/24 03:25:22;;;;;;;11.77;9.10;;;11.10;99.90;;;;;;4975226;28;20497;-44
2021/09/24 03:27:49;;;;;;;11.93;9.60;;;11.10;99.90;;;;;;4990926;28;20539;-46
2021/09/24 03:30:15;;;;;;;13.98;10.77;;;11.00;99.90;;;;;;4994900;28;20125;-46
2021/09/24 03:32:41;;;;;;;12.63;9.80;;;11.00;99.90;;;;;;4994246;28;20038;-45
2021/09/24 03:35:08;;;;;;;13.80;9.88;;;11.10;99.90;;;;;;4994400;28;20054;-48
2021/09/24 03:37:37;;;;;;;12.88;9.05;;;11.00;99.90;;;;;;4923696;28;20035;-49
2021/09/24 03:40:03;;;;;;;12.52;9.55;;;11.00;99.90;;;;;;4975036;28;20023;-47
2021/09/24 03:42:29;;;;;;;13.75;9.80;;;11.10;99.90;;;;;;4942492;28;20098;-42
2021/09/24 03:44:55;;;;;;;14.20;8.43;;;11.10;99.90;;;;;;4975783;28;20045;-45
2021/09/24 03:47:21;;;;;;;14.15;9.15;;;11.10;99.90;;;;;;4975110;28;20113;-44
2021/09/24 03:49:47;;;;;;;12.55;9.27;;;11.20;99.90;;;;;;4958929;28;20126;-47
2021/09/24 03:52:12;;;;;;;10.52;9.07;;;11.10;99.90;;;;;;4973730;28;20148;-43
2021/09/24 03:54:38;;;;;;;12.45;9.15;;;11.20;99.90;;;;;;4974887;28;20038;-47
2021/09/24 03:57:04;;;;;;;15.52;8.73;;;11.10;99.90;;;;;;4996372;28;20069;-50
2021/09/24 03:59:30;;;;;;;12.07;9.68;;;11.00;99.90;;;;;;4978298;28;20125;-45
2021/09/24 04:01:56;;;;;;;11.52;9.02;;;10.90;99.90;;;;;;4978319;28;20030;-45
2021/09/24 04:04:21;;;;;;;14.20;10.88;;;10.90;99.90;;;;;;4996617;28;20033;-44
2021/09/24 04:06:56;;;;;;;16.77;12.10;;;10.90;99.90;;;;;;5012800;28;20026;-45
2021/09/24 04:09:24;;;;;;;13.30;11.45;;;10.90;99.90;;;;;;5015746;28;20038;-48
2021/09/24 04:11:50;;;;;;;16.02;12.02;;;10.90;99.90;;;;;;4997540;28;20088;-47
2021/09/24 04:14:15;;;;;;;14.15;11.23;;;10.90;99.90;;;;;;5015941;28;20022;-42
2021/09/24 04:16:42;;;;;;;14.25;11.43;;;10.90;99.90;;;;;;5015556;28;20030;-43
2021/09/24 04:19:08;;;;;;;14.88;11.82;;;11.00;99.90;;;;;;5015555;28;20026;-45
2021/09/24 04:21:36;;;;;;;12.93;10.63;;;10.80;99.90;;;;;;4996180;28;20049;-49
2021/09/24 04:24:01;;;;;;;12.57;10.93;;;10.40;99.90;;;;;;5015622;28;20436;-46
2021/09/24 04:26:27;;;;;;;12.80;10.07;;;10.30;99.90;;;;;;5012013;28;20117;-43
2021/09/24 04:28:53;;;;;;;12.52;9.80;;;10.20;99.90;;;;;;5015140;28;20034;-43
2021/09/24 04:31:19;;;;;;;12.40;10.23;;;10.40;99.90;;;;;;4996719;28;20049;-49
2021/09/24 04:33:44;;;;;;;13.45;10.63;;;10.50;99.90;;;;;;5015470;28;20080;-44
2021/09/24 04:36:10;;;;;;;13.45;10.25;;;10.50;99.90;;;;;;5013445;28;20054;-42
2021/09/24 04:38:36;;;;;;;13.38;10.60;;;9.90;99.90;;;;;;5014869;28;20040;-48
2021/09/24 04:41:02;;;;;;;12.77;10.25;;;9.90;99.90;;;;;;4960515;28;20117;-45
2021/09/24 04:43:27;;;;;;;14.52;10.68;;;9.80;99.90;;;;;;4945352;28;20088;-48
2021/09/24 04:45:53;;;;;;;17.25;11.70;;;10.00;99.90;;;;;;5005289;28;20076;-48
2021/09/24 04:48:19;;;;;;;16.02;10.90;;;9.70;99.90;;;;;;5003229;28;20114;-48
2021/09/24 04:50:45;;;;;;;12.85;10.10;;;9.50;99.90;;;;;;4988080;28;20041;-47
2021/09/24 04:53:11;;;;;;;15.27;10.32;;;9.60;99.90;;;;;;4992557;28;20056;-44
2021/09/24 04:55:36;;;;;;;14.57;9.95;;;9.60;99.90;;;;;;4996640;28;20042;-42
2021/09/24 04:58:02;;;;;;;13.85;10.68;;;9.80;99.90;;;;;;4996892;28;20038;-48
2021/09/24 05:00:28;;;;;;;13.50;9.63;;;10.20;99.90;;;;;;5014773;28;20076;-51
2021/09/24 05:02:54;;;;;;;11.38;9.60;;;10.30;99.90;;;;;;5012007;28;20034;-50
2021/09/24 05:05:19;;;;;;;10.55;9.15;;;10.60;99.90;;;;;;5010589;28;20025;-45
2021/09/24 05:07:46;;;;;;;13.55;9.90;;;10.70;99.90;;;;;;5003903;28;20416;-45
2021/09/24 05:10:12;;;;;;;10.25;9.07;;;10.60;99.90;;;;;;4986394;28;20044;-47
2021/09/24 05:12:37;;;;;;;10.85;9.43;;;10.60;99.90;;;;;;5005245;28;20113;-43
2021/09/24 05:15:03;;;;;;;10.88;9.20;;;10.80;99.90;;;;;;5001694;28;20034;-47
2021/09/24 05:17:29;;;;;;;10.75;8.60;;;10.90;99.90;;;;;;4994666;28;20190;-45
2021/09/24 05:19:55;;;;;;;12.77;9.50;;;11.10;99.90;;;;;;4944791;28;20156;-47
2021/09/24 05:22:21;;;;;;;12.27;8.70;;;11.20;99.90;;;;;;4994658;28;20037;-44
2021/09/24 05:24:46;;;;;;;11.88;9.35;;;11.40;99.90;;;;;;4976844;28;20065;-47
2021/09/24 05:27:12;;;;;;;10.55;9.02;;;11.60;99.90;;;;;;4976929;28;20058;-49
2021/09/24 05:29:38;;;;;;;14.15;9.30;;;11.50;99.90;;;;;;5000578;28;20081;-50
2021/09/24 05:32:04;;;;;;;13.25;10.85;;;11.60;99.90;;;;;;5003754;28;20544;-43
2021/09/24 05:34:30;;;;;;;14.88;9.98;;;11.80;99.90;;;;;;4987019;28;20621;-43
2021/09/24 05:36:55;;;;;;;14.88;10.50;;;11.90;99.90;;;;;;5004840;28;20120;-46
2021/09/24 05:39:21;;;;;;;15.98;11.98;;;12.00;99.90;;;;;;4979036;28;20040;-44
2021/09/24 05:41:47;;;;;;;20.27;12.10;;;12.00;99.90;;;;;;4943923;28;20040;-48
2021/09/24 05:44:12;;;;;;;16.20;12.07;;;12.10;99.90;;;;;;4994203;28;20474;-47
2021/09/24 05:46:41;;;;;;;15.40;12.35;;;12.30;99.90;;;;;;4994390;28;20032;-48
2021/09/24 05:49:07;;;;;;;19.33;14.15;;;12.40;99.90;;;;;;4994160;28;20053;-48
2021/09/24 05:51:33;;;;;;;20.27;14.60;;;12.40;99.90;;;;;;4994467;28;20541;-45
2021/09/24 05:53:59;;;;;;;25.30;16.70;;;12.60;99.90;;;;;;4994263;28;20066;-45
2021/09/24 05:56:25;;;;;;;35.65;27.70;;;12.60;99.90;;;;;;4994944;28;20053;-45
2021/09/24 05:58:50;;;;;;;46.28;35.85;;;12.80;99.90;;;;;;4994577;28;20038;-48
2021/09/24 06:01:16;;;;;;;37.50;28.30;;;12.90;99.90;;;;;;4994227;28;20030;-43
2021/09/24 06:03:42;;;;;;;46.78;34.17;;;13.10;99.90;;;;;;4960068;28;20038;-48
2021/09/24 06:06:08;;;;;;;47.15;34.97;;;13.20;99.90;;;;;;4994397;28;20434;-44
2021/09/24 06:08:33;;;;;;;58.88;43.42;;;13.30;99.90;;;;;;4994027;28;20026;-44
2021/09/24 06:10:59;;;;;;;40.17;30.67;;;13.20;99.90;;;;;;4994550;28;20029;-44
2021/09/24 06:13:25;;;;;;;33.70;24.92;;;13.30;99.90;;;;;;4983976;28;20047;-47
2021/09/24 06:15:51;;;;;;;29.33;20.77;;;13.50;99.90;;;;;;5005012;28;20030;-51
2021/09/24 06:18:16;;;;;;;26.48;19.17;;;13.70;99.90;;;;;;4995545;28;20062;-47
2021/09/24 06:20:43;;;;;;;33.45;28.88;;;13.80;99.90;;;;;;5004924;28;20022;-50
2021/09/24 06:23:09;;;;;;;36.55;29.83;;;13.90;99.90;;;;;;5007826;28;20030;-44
2021/09/24 06:25:35;;;;;;;18.95;16.88;;;14.10;99.90;;;;;;5013881;28;20072;-47
2021/09/24 06:28:01;;;;;;;15.13;10.25;;;14.30;99.90;;;;;;4995520;28;20057;-46
2021/09/24 06:30:27;;;;;;;11.82;9.57;;;14.60;99.90;;;;;;4995524;28;20046;-44
2021/09/24 06:32:54;;;;;;;13.77;10.13;;;14.80;99.90;;;;;;5009709;28;20034;-43
2021/09/24 06:35:21;;;;;;;11.95;9.48;;;15.00;99.90;;;;;;5003005;28;20050;-49
2021/09/24 06:37:46;;;;;;;13.13;9.48;;;15.20;99.90;;;;;;4993780;28;20026;-45
2021/09/24 06:40:13;;;;;;;12.27;9.45;;;15.30;99.90;;;;;;4993868;28;20025;-40
2021/09/24 06:42:40;;;;;;;11.80;9.32;;;15.20;99.90;;;;;;4992597;28;20045;-45
2021/09/24 06:45:09;;;;;;;13.75;9.63;;;15.40;99.90;;;;;;4994898;28;20041;-43
2021/09/24 06:47:35;;;;;;;10.48;9.00;;;15.40;99.90;;;;;;4963608;28;20042;-43
2021/09/24 06:50:00;;;;;;;11.40;8.70;;;15.70;99.90;;;;;;4997952;28;20038;-48
2021/09/24 06:52:26;;;;;;;12.05;9.32;;;15.90;99.90;;;;;;4963809;28;20041;-42
2021/09/24 06:54:54;;;;;;;12.60;8.88;;;;;;;;;;4997842;28;20072;-47
2021/09/24 06:57:20;;;;;;;12.10;9.00;;;16.60;99.90;;;;;;4997734;28;20031;-50
2021/09/24 06:59:45;;;;;;;10.93;8.20;;;16.70;99.90;;;;;;4997538;28;20049;-48
2021/09/24 07:02:12;;;;;;;11.10;8.82;;;;;;;;;;4997378;28;20421;-46
2021/09/24 07:04:38;;;;;;;13.63;8.32;;;17.40;99.90;;;;;;4997947;28;20034;-42
2021/09/24 07:07:04;;;;;;;13.10;8.55;;;17.30;99.90;;;;;;4997915;28;20106;-44
2021/09/24 07:09:29;;;;;;;12.98;8.63;;;17.90;99.90;;;;;;4997071;28;20030;-44
2021/09/24 07:11:56;;;;;;;15.52;10.23;;;;;;;;;;4979277;28;20061;-44
2021/09/24 07:14:22;;;;;;;15.93;9.65;;;;;;;;;;4995819;28;20038;-41
2021/09/24 07:16:49;;;;;;;43.70;18.88;;;;;;;;;;4995537;28;20034;-44
2021/09/24 07:19:15;;;;;;;90.40;33.10;;;;;;;;;;4995696;28;20038;-45
2021/09/24 07:21:41;;;;;;;50.42;20.88;;;19.80;98.30;;;;;;4962831;28;20043;-42
2021/09/24 07:24:07;;;;;;;26.90;13.35;;;19.90;98.70;;;;;;4997027;28;20084;-44
2021/09/24 07:26:33;;;;;;;15.85;10.13;;;19.80;96.90;;;;;;5008125;28;20096;-42
2021/09/24 07:28:59;;;;;;;13.13;9.15;;;;;;;;;;5001101;28;20046;-41
2021/09/24 07:31:26;;;;;;;18.98;12.07;;;;;;;;;;4996966;28;20367;-46
2021/09/24 07:33:52;;;;;;;21.30;11.57;;;19.80;95.00;;;;;;4996846;28;20031;-46
2021/09/24 07:36:18;;;;;;;15.50;10.85;;;20.00;95.60;;;;;;4996560;28;20053;-45
2021/09/24 07:38:45;;;;;;;19.33;12.10;;;20.20;95.40;;;;;;4996149;28;20034;-42
2021/09/24 07:41:12;;;;;;;20.88;12.73;;;;;;;;;;4996164;28;20500;-44
2021/09/24 07:43:38;;;;;;;19.10;12.10;;;20.50;94.70;;;;;;4996632;28;20022;-46
2021/09/24 07:46:04;;;;;;;14.48;10.00;;;;;;;;;;5005653;28;20385;-44
2021/09/24 07:48:31;;;;;;;13.38;9.95;;;;;;;;;;4992697;28;20038;-41
2021/09/24 07:50:57;;;;;;;13.80;10.55;;;;;;;;;;4994430;28;20046;-38
2021/09/24 07:53:23;;;;;;;15.55;10.73;;;;;;;;;;4994595;28;20413;-47
2021/09/24 07:55:49;;;;;;;14.35;10.10;;;23.60;92.40;;;;;;4961907;28;20081;-47
2021/09/24 07:58:15;;;;;;;14.15;9.07;;;;;;;;;;4977917;28;20137;-40
2021/09/24 08:00:41;;;;;;;10.23;8.15;;;;;;;;;;4994144;28;20434;-42
2021/09/24 08:03:07;;;;;;;9.20;7.07;;;24.20;86.30;;;;;;4993558;28;20050;-45
2021/09/24 08:05:33;;;;;;;10.35;6.28;;;23.70;83.90;;;;;;4961926;28;20154;-41
2021/09/24 08:07:59;;;;;;;11.23;5.60;;;23.60;82.70;;;;;;4994012;28;20483;-46
2021/09/24 08:10:25;;;;;;;10.93;5.85;;;23.70;84.10;;;;;;4993898;28;20053;-44
2021/09/24 08:12:54;;;;;;;9.35;4.85;;;24.30;82.00;;;;;;4961883;28;20077;-48
2021/09/24 08:15:21;;;;;;;10.80;5.22;;;23.90;80.80;;;;;;4994140;28;20037;-41
2021/09/24 08:17:47;;;;;;;9.70;4.75;;;23.90;80.00;;;;;;4993839;28;20390;-47
2021/09/24 08:20:14;;;;;;;9.82;5.75;;;24.40;80.50;;;;;;5006706;28;20378;-45
2021/09/24 08:22:41;;;;;;;5.72;4.50;;;;;;;;;;5015290;28;20034;-45
2021/09/24 08:25:12;;;;;;;8.35;5.53;;;;;;;;;;5015324;28;20108;-46
2021/09/24 08:27:38;;;;;;;9.30;5.75;;;24.90;76.60;;;;;;4998540;28;20042;-46
2021/09/24 08:30:06;;;;;;;6.90;5.20;;;24.80;76.40;;;;;;4995648;28;20130;-42
2021/09/24 08:32:36;;;;;;;7.45;5.68;;;25.50;75.50;;;;;;4977752;28;20031;-45
2021/09/24 08:35:07;;;;;;;6.00;4.28;;;25.40;77.20;;;;;;4973955;28;20073;-41
2021/09/24 08:37:33;;;;;;;5.65;4.18;;;24.70;75.70;;;;;;4962555;28;20494;-44
2021/09/24 08:39:59;;;;;;;6.82;4.15;;;25.20;75.00;;;;;;5002604;28;20032;-42
2021/09/24 08:42:27;;;;;;;12.95;4.65;;;25.40;72.70;;;;;;5007112;28;20022;-45
2021/09/24 08:44:53;;;;;;;9.48;4.30;;;25.80;74.00;;;;;;5007272;28;20100;-43
2021/09/24 08:47:20;;;;;;;8.82;4.32;;;25.60;71.10;;;;;;5011802;28;20034;-46
2021/09/24 08:49:46;;;;;;;7.28;4.30;;;25.80;71.60;;;;;;5012564;28;20073;-44
2021/09/24 08:52:13;;;;;;;7.35;4.85;;;26.10;74.00;;;;;;5004927;28;20033;-43
2021/09/24 08:54:39;;;;;;;6.47;4.40;;;;;;;;;;5014517;28;20077;-48
2021/09/24 08:57:05;;;;;;;7.55;4.53;;;;;;;;;;5021536;28;20034;-43
2021/09/24 08:59:31;;;;;;;7.68;5.00;;;;;;;;;;5016693;28;20038;-51
2021/09/24 09:02:01;;;;;;;7.93;4.60;;;27.30;66.90;;;;;;5014008;28;20056;-47
2021/09/24 09:04:34;;;;;;;7.63;4.85;;;;;;;;;;5000940;28;20072;-44
2021/09/24 09:07:05;;;;;;;13.65;8.10;;;27.60;67.50;;;;;;5019417;28;20037;-48
2021/09/24 09:09:43;;;;;;;8.35;3.75;;;27.90;65.70;;;;;;4988233;28;20069;-47
2021/09/24 09:12:17;;;;;;;6.85;3.47;;;27.00;65.80;;;;;;5010142;28;20033;-44
2021/09/24 09:14:55;;;;;;;4.88;3.20;;;26.50;67.40;;;;;;5020551;28;20029;-46
2021/09/24 09:17:33;;;;;;;3.70;1.92;;;26.90;66.20;;;;;;5018595;28;20116;-49
2021/09/24 09:20:29;;;;;;;5.07;2.38;;;26.50;66.60;;;;;;5010747;28;20056;-45
2021/09/24 09:23:01;;;;;;;2.22;1.65;;;26.80;64.20;;;;;;4957062;28;20554;-46
2021/09/24 09:25:32;;;;;;;3.60;2.10;;;26.40;64.10;;;;;;4958203;28;20444;-49
2021/09/24 09:28:13;;;;;;;4.50;2.78;;;26.50;63.30;;;;;;4957053;28;20646;-44
2021/09/24 09:30:42;;;;;;;5.57;2.42;;;26.40;63.90;;;;;;4928001;28;20050;-50
2021/09/24 09:33:15;;;;;;;3.08;1.88;;;26.30;64.10;;;;;;4952728;28;20122;-45
2021/09/24 09:35:49;;;;;;;5.75;2.70;;;26.00;64.40;;;;;;4957096;28;20058;-45
2021/09/24 09:38:33;;;;;;;5.07;2.30;;;26.20;64.90;;;;;;4963730;28;20039;-42
2021/09/24 09:41:05;;;;;;;5.22;2.47;;;25.90;65.30;;;;;;4958866;28;20034;-45
2021/09/24 09:43:34;;;;;;;4.50;2.60;;;26.50;65.30;;;;;;4959851;28;20081;-46
2021/09/24 09:46:03;;;;;;;6.13;3.05;;;26.10;65.70;;;;;;4923116;28;20035;-46
2021/09/24 09:48:29;;;;;;;4.13;2.90;;;25.90;66.60;;;;;;4937349;29;20507;-47
2021/09/24 09:50:55;;;;;;;8.82;2.70;;;26.70;66.50;;;;;;4958050;28;20031;-50
2021/09/24 09:53:21;;;;;;;6.38;2.58;;;26.70;66.70;;;;;;4959774;28;20378;-46
2021/09/24 09:55:51;;;;;;;4.22;2.78;;;26.30;65.90;;;;;;4967977;28;20054;-46
2021/09/24 09:58:19;;;;;;;5.57;3.50;;;25.80;66.60;;;;;;4929758;29;20051;-44
2021/09/24 10:00:53;;;;;;;4.47;2.25;;;25.50;67.80;;;;;;5002328;28;20053;-41
2021/09/24 10:03:39;;;;;;;8.82;2.63;;;25.50;67.70;;;;;;5012514;28;20033;-44
2021/09/24 10:06:19;;;;;;;5.97;2.88;;;25.70;67.50;;;;;;5015314;28;20083;-50
2021/09/24 10:08:45;;;;;;;7.50;2.95;;;26.30;67.10;;;;;;5013330;28;20123;-46
2021/09/24 10:11:13;;;;;;;6.20;3.33;;;26.30;68.00;;;;;;5020403;28;20462;-45
2021/09/24 10:14:10;;;;;;;6.45;2.65;;;26.40;67.40;;;;;;5016688;28;20038;-45
2021/09/24 10:16:39;;;;;;;3.97;3.13;;;27.40;66.10;;;;;;4917984;29;20574;-45
2021/09/24 10:19:06;;;;;;;6.55;2.83;;;27.60;66.10;;;;;;4947230;28;20036;-43
2021/09/24 10:21:32;;;;;;;4.70;2.65;;;27.10;66.20;;;;;;4947509;29;20082;-47
2021/09/24 10:23:58;;;;;;;4.40;2.47;;;27.00;65.00;;;;;;4952337;29;20047;-43
2021/09/24 10:26:30;;;;;;;3.65;2.72;;;27.00;64.80;;;;;;4951114;29;20036;-45
2021/09/24 10:28:58;;;;;;;;;;;27.10;65.50;;;;;;4953263;29;20031;-44
2021/09/24 10:31:26;;;;;;;9.00;3.70;;;27.20;65.60;;;;;;4948173;29;19938;-46
2021/09/24 10:34:00;;;;;;;4.70;3.28;;;27.30;65.60;;;;;;4944505;29;20098;-48
2021/09/24 10:36:36;;;;;;;4.63;3.65;;;;;;;;;;4951526;29;20130;-45
2021/09/24 10:39:03;;;;;;;5.78;3.22;;;27.30;65.00;;;;;;4941299;29;20074;-46
2021/09/24 10:41:29;;;;;;;5.93;3.47;;;27.20;65.00;;;;;;4948172;29;20055;-47
2021/09/24 10:43:56;;;;;;;5.43;3.38;;;27.10;65.60;;;;;;4950711;29;20062;-44
2021/09/24 10:46:25;;;;;;;5.82;3.60;;;27.80;65.20;;;;;;4951187;29;20042;-46
2021/09/24 10:49:19;;;;;;;6.78;3.30;;;28.00;65.90;;;;;;4949222;29;20126;-43
2021/09/24 10:52:06;;;;;;;5.28;3.33;;;28.20;64.10;;;;;;4946268;28;20075;-42
2021/09/24 10:54:31;;;;;;;6.50;2.80;;;28.60;63.40;;;;;;5011071;28;20041;-44
2021/09/24 10:57:02;;;;;;;4.93;2.63;;;28.80;62.90;;;;;;5028885;28;20033;-48
2021/09/24 10:59:35;;;;;;;5.05;2.70;;;29.30;62.90;;;;;;5014619;28;20137;-44
2021/09/24 11:02:42;;;;;;;4.03;2.85;;;29.00;84.60;;;;;;4981243;28;20034;-45
2021/09/24 11:05:08;;;;;;;4.18;2.78;;;28.90;84.00;;;;;;5011986;28;20036;-43
2021/09/24 11:07:36;;;;;;;4.65;2.63;;;28.60;84.20;;;;;;5014390;28;20033;-42
2021/09/24 11:10:04;;;;;;;3.40;2.40;;;28.20;83.20;;;;;;5007750;28;20029;-49
2021/09/24 11:12:30;;;;;;;3.28;2.60;;;28.10;82.90;;;;;;4994710;28;20498;-44
2021/09/24 11:15:05;;;;;;;3.63;2.85;;;28.20;82.70;;;;;;5018845;28;20045;-46
2021/09/24 11:17:43;;;;;;;2.75;1.98;;;28.40;82.10;;;;;;5000780;28;20033;-47
2021/09/24 11:20:27;;;;;;;3.80;2.50;;;27.90;81.00;;;;;;5016037;28;20033;-46
2021/09/24 11:22:53;;;;;;;4.45;2.40;;;28.30;81.10;;;;;;5012613;28;20343;-51
2021/09/24 11:25:19;;;;;;;3.38;2.58;;;28.20;82.90;;;;;;5013000;28;20496;-49
2021/09/24 11:27:46;;;;;;;5.70;3.00;;;28.20;82.00;;;;;;5020973;28;20034;-48
2021/09/24 11:30:20;;;;;;;3.50;2.40;;;28.50;83.10;;;;;;5011457;28;20121;-45
2021/09/24 11:32:48;;;;;;;4.00;2.78;;;28.40;81.80;;;;;;5011611;28;20424;-44
2021/09/24 11:35:20;;;;;;;13.93;6.45;;;28.20;81.50;;;;;;4963366;28;20045;-47
2021/09/24 11:37:48;;;;;;;;;;;28.10;82.30;;;;;;5015732;28;20045;-49
2021/09/24 11:40:20;;;;;;;6.18;3.75;;;28.50;81.80;;;;;;4994833;28;19909;-45
2021/09/24 11:42:50;;;;;;;6.90;3.03;;;28.20;83.10;;;;;;4998350;28;20046;-47
2021/09/24 11:45:18;;;;;;;4.35;2.65;;;28.20;82.50;;;;;;5018466;28;20045;-50
2021/09/24 11:47:45;;;;;;;4.15;2.90;;;27.90;81.50;;;;;;5020201;28;20026;-45
2021/09/24 11:50:19;;;;;;;5.53;2.58;;;28.40;82.30;;;;;;5008628;28;20078;-48
2021/09/24 11:52:55;;;;;;;4.43;2.53;;;28.50;82.00;;;;;;4979582;28;20592;-50
2021/09/24 11:55:24;;;;;;;6.00;3.33;;;28.20;81.90;;;;;;5017053;28;20080;-47
2021/09/24 11:58:01;;;;;;;5.15;2.92;;;28.10;81.60;;;;;;4998688;28;20041;-49
2021/09/24 12:00:38;;;;;;;4.95;2.80;;;28.50;81.80;;;;;;5013444;28;20037;-46
2021/09/24 12:03:18;;;;;;;4.72;3.10;;;28.60;82.20;;;;;;5003463;28;20045;-46
2021/09/24 12:06:06;;;;;;;5.53;2.67;;;28.90;82.60;;;;;;5015063;28;20045;-44
2021/09/24 12:08:45;;;;;;;4.18;2.35;;;28.80;82.40;;;;;;5005112;28;20052;-47
2021/09/24 12:11:25;;;;;;;4.13;2.80;;;28.60;82.20;;;;;;5015758;28;20033;-51
2021/09/24 12:14:00;;;;;;;3.85;2.60;;;;;;;;;;5020189;28;20470;-48
2021/09/24 12:16:36;;;;;;;4.68;2.40;;;;;;;;;;5013384;28;20042;-47
2021/09/24 12:19:04;;;;;;;5.07;2.42;;;30.00;78.20;;;;;;5017685;28;20073;-46
2021/09/24 12:21:39;;;;;;;4.18;2.75;;;30.10;60.00;;;;;;5008690;28;20426;-48
2021/09/24 12:24:18;;;;;;;8.73;2.63;;;29.60;61.40;;;;;;5013218;28;20064;-47
2021/09/24 12:26:46;;;;;;;3.17;2.47;;;29.30;60.60;;;;;;5017834;28;20034;-50
2021/09/24 12:29:14;;;;;;;3.22;2.42;;;29.10;61.60;;;;;;5017205;28;20544;-47
2021/09/24 12:31:41;;;;;;;5.25;2.42;;;;;;;;;;5014758;28;20026;-46
2021/09/24 12:34:08;;;;;;;6.18;2.50;;;28.60;61.20;;;;;;5011108;28;20119;-48
2021/09/24 12:36:46;;;;;;;2.90;2.47;;;29.20;60.90;;;;;;5003706;28;20046;-46
2021/09/24 12:39:15;;;;;;;5.15;2.33;;;28.80;61.40;;;;;;5007734;28;20040;-49
2021/09/24 12:41:42;;;;;;;4.82;2.70;;;29.30;61.40;;;;;;5017343;28;20029;-43
2021/09/24 12:44:08;;;;;;;10.45;2.92;;;29.10;61.80;;;;;;5018102;28;20531;-49
2021/09/24 12:46:40;;;;;;;4.47;2.78;;;28.70;62.30;;;;;;5018546;28;20068;-46
2021/09/24 12:49:05;;;;;;;3.05;2.42;;;28.90;61.50;;;;;;4984542;28;20550;-48
2021/09/24 12:51:31;;;;;;;3.40;2.33;;;28.90;62.60;;;;;;5017176;28;20034;-49
2021/09/24 12:53:57;;;;;;;3.35;2.40;;;29.50;62.20;;;;;;5016334;28;20394;-48